KHDE/HDE METAR and TAF weather

Enter ICAO airport designator
Station Type Date Time Source
KHDE METAR 2021/09/27 06:55 UTC NOAA

KHDE 270655Z AUTO 33006KT 10SM CLR 17/09 A2981 RMK AO2 T01720087


Station Type Date Time Source
KHDE Decoded METAR 2021/09/27 06:55 UTC NOAA

Brewster Field Airport, NE, United States (KHDE) 40-27N 099-20W
Sep 27, 2021 - 02:55 AM EDT / 2021.09.27 0655 UTC
Wind: from the NNW (330 degrees) at 7 MPH (6 KT):0
Visibility: 10 mile(s):0
Sky conditions: clear
Temperature: 63.0 F (17.2 C)
Dew Point: 47.7 F (8.7 C)
Relative Humidity: 57%
Pressure (altimeter): 29.81 in. Hg (1009 hPa)
ob: KHDE 270655Z AUTO 33006KT 10SM CLR 17/09 A2981 RMK AO2 T01720087
cycle: 7

Station Type Date Time Source
KHDE TAF UTC NOAA

Error!

Example: see airport list